createdAt,value
2022-09-09T00:00:56.242Z,84.82
2022-09-09T00:03:31.233Z,84.10
2022-09-09T00:06:12.361Z,83.99
2022-09-09T00:09:00.585Z,84.02
2022-09-09T00:11:42.551Z,83.71
2022-09-09T00:14:23.888Z,83.88
2022-09-09T00:17:03.166Z,83.88
2022-09-09T00:19:44.724Z,83.71
2022-09-09T00:22:20.427Z,84.38
2022-09-09T00:24:54.467Z,84.30
2022-09-09T00:27:33.847Z,83.84
2022-09-09T00:30:17.345Z,83.82
2022-09-09T00:32:46.677Z,83.95
2022-09-09T00:35:24.954Z,84.25
2022-09-09T00:38:02.598Z,83.77
2022-09-09T00:40:37.449Z,84.22
2022-09-09T00:43:32.071Z,84.64
2022-09-09T00:46:43.302Z,84.63
2022-09-09T00:49:26.443Z,84.39
2022-09-09T00:52:22.639Z,84.74
2022-09-09T00:55:07.552Z,84.88
2022-09-09T00:57:38.395Z,84.55
2022-09-09T01:00:24.312Z,84.47
2022-09-09T01:03:25.380Z,85.02
2022-09-09T01:06:17.942Z,84.79
2022-09-09T01:09:15.369Z,84.41
2022-09-09T01:12:04.965Z,84.78
2022-09-09T01:14:46.173Z,84.96
2022-09-09T01:17:26.676Z,85.05
2022-09-09T01:20:14.982Z,84.78
2022-09-09T01:23:17.371Z,84.68
2022-09-09T01:26:32.329Z,84.34
2022-09-09T01:29:09.886Z,84.99
2022-09-09T01:31:44.342Z,84.94
2022-09-09T01:34:14.626Z,85.00
2022-09-09T01:36:49.651Z,85.24
2022-09-09T01:39:18.629Z,85.09
2022-09-09T01:41:52.043Z,84.98
2022-09-09T01:44:23.032Z,85.06
2022-09-09T01:46:51.973Z,84.94
2022-09-09T01:49:23.168Z,85.06
2022-09-09T01:51:57.252Z,85.13
2022-09-09T01:54:39.298Z,85.19
2022-09-09T01:57:23.398Z,85.20
2022-09-09T02:00:10.369Z,85.37
2022-09-09T02:02:59.172Z,85.25
2022-09-09T02:05:46.643Z,85.37
2022-09-09T02:08:28.592Z,85.52
2022-09-09T02:11:12.432Z,85.35
2022-09-09T02:13:50.153Z,85.09
2022-09-09T02:16:28.850Z,85.12
2022-09-09T02:19:05.221Z,85.34
2022-09-09T02:21:49.137Z,85.27
2022-09-09T02:24:18.928Z,85.12
2022-09-09T02:26:59.885Z,85.22
2022-09-09T02:29:37.466Z,85.69
2022-09-09T02:32:12.546Z,85.26
2022-09-09T02:34:47.901Z,85.56
2022-09-09T02:37:20.838Z,85.81
2022-09-09T02:39:53.429Z,85.96
2022-09-09T02:42:25.079Z,85.43
2022-09-09T02:44:57.813Z,85.53
2022-09-09T02:47:38.182Z,85.50
2022-09-09T02:50:19.959Z,85.86
2022-09-09T02:53:05.170Z,85.64
2022-09-09T02:55:43.387Z,85.58
2022-09-09T02:58:19.119Z,85.59
2022-09-09T03:00:59.636Z,85.64
2022-09-09T03:03:30.215Z,85.87
2022-09-09T03:06:02.008Z,86.15
2022-09-09T03:08:31.190Z,85.79
2022-09-09T03:11:02.775Z,85.90
2022-09-09T03:13:34.853Z,86.33
2022-09-09T03:16:05.889Z,86.23
2022-09-09T03:18:41.061Z,85.70
2022-09-09T03:21:10.826Z,85.71
2022-09-09T03:23:41.760Z,85.66
2022-09-09T03:26:11.529Z,85.68
2022-09-09T03:28:46.791Z,85.58
2022-09-09T03:31:21.048Z,85.65
2022-09-09T03:33:50.117Z,85.60
2022-09-09T03:36:23.133Z,85.55
2022-09-09T03:38:51.814Z,85.44
2022-09-09T03:41:21.015Z,85.53
2022-09-09T03:43:49.847Z,85.59
2022-09-09T03:46:24.470Z,85.47
2022-09-09T03:48:54.856Z,85.40
2022-09-09T03:51:25.615Z,85.62
2022-09-09T03:53:59.146Z,85.62
2022-09-09T03:56:37.398Z,85.62
2022-09-09T03:59:06.619Z,85.16
2022-09-09T04:01:37.836Z,85.54
2022-09-09T04:04:06.812Z,85.77
2022-09-09T04:06:35.928Z,85.63
2022-09-09T04:09:04.952Z,85.69
2022-09-09T04:11:35.283Z,85.78
2022-09-09T04:14:07.051Z,85.95
2022-09-09T04:16:46.934Z,85.61
2022-09-09T04:19:16.908Z,85.60
2022-09-09T04:21:59.894Z,85.83
2022-09-09T04:24:30.557Z,86.06
2022-09-09T04:27:02.041Z,86.00
2022-09-09T04:29:32.383Z,86.39
2022-09-09T04:32:04.467Z,86.46
2022-09-09T04:34:34.025Z,86.35
2022-09-09T04:37:02.930Z,86.53
2022-09-09T04:39:31.817Z,86.45
2022-09-09T04:42:03.078Z,86.67
2022-09-09T04:44:32.035Z,86.81
2022-09-09T04:47:03.118Z,86.53
2022-09-09T04:49:32.636Z,86.77
2022-09-09T04:52:02.262Z,86.85
2022-09-09T04:54:30.951Z,87.09
2022-09-09T04:56:59.815Z,87.17
2022-09-09T04:59:28.595Z,87.08
2022-09-09T05:02:02.040Z,86.92
2022-09-09T05:04:33.230Z,87.32
2022-09-09T05:07:02.293Z,87.22
2022-09-09T05:09:31.211Z,87.88
2022-09-09T05:12:00.578Z,87.66
2022-09-09T05:14:33.932Z,88.04
2022-09-09T05:17:04.239Z,88.20
2022-09-09T05:19:34.406Z,88.11
2022-09-09T05:22:04.335Z,88.33
2022-09-09T05:24:41.687Z,88.83
2022-09-09T05:27:13.227Z,88.65
2022-09-09T05:29:45.609Z,89.30
2022-09-09T05:32:16.555Z,89.47
2022-09-09T05:34:49.507Z,89.00
2022-09-09T05:37:19.480Z,88.93
2022-09-09T05:39:48.246Z,89.18
2022-09-09T05:42:17.042Z,89.14
2022-09-09T05:44:46.642Z,88.92
2022-09-09T05:47:16.372Z,89.49
2022-09-09T05:49:45.826Z,89.33
2022-09-09T05:52:16.031Z,89.57
2022-09-09T05:54:45.010Z,89.64
2022-09-09T05:57:13.630Z,89.77
2022-09-09T05:59:42.667Z,90.15
2022-09-09T06:02:11.981Z,90.11
2022-09-09T06:04:41.425Z,89.96
2022-09-09T06:07:10.152Z,89.94
2022-09-09T06:09:40.258Z,90.41
2022-09-09T06:12:10.377Z,90.47
2022-09-09T06:14:42.066Z,90.54
2022-09-09T06:17:13.346Z,90.85
2022-09-09T06:19:42.057Z,90.57
2022-09-09T06:22:13.477Z,90.67
2022-09-09T06:24:43.561Z,90.81
2022-09-09T06:27:14.615Z,90.82
2022-09-09T06:29:44.254Z,91.01
2022-09-09T06:32:12.949Z,91.37
2022-09-09T06:34:42.865Z,91.47
2022-09-09T06:37:12.383Z,91.82
2022-09-09T06:39:47.524Z,92.01
2022-09-09T06:42:16.786Z,92.17
2022-09-09T06:44:51.359Z,92.47
2022-09-09T06:47:37.006Z,92.08
2022-09-09T06:50:08.471Z,91.79
2022-09-09T06:52:37.978Z,91.93
2022-09-09T06:55:10.401Z,92.09
2022-09-09T06:57:39.378Z,92.26
2022-09-09T07:00:15.804Z,92.61
2022-09-09T07:02:45.489Z,92.09
2022-09-09T07:05:16.451Z,92.10
2022-09-09T07:07:47.588Z,92.21
2022-09-09T07:10:20.297Z,92.78
2022-09-09T07:12:54.305Z,93.55
2022-09-09T07:15:25.962Z,93.34
2022-09-09T07:17:56.170Z,93.31
2022-09-09T07:20:24.868Z,93.59
2022-09-09T07:22:59.592Z,93.98
2022-09-09T07:25:31.190Z,94.39
2022-09-09T07:28:00.440Z,94.23
2022-09-09T07:30:29.968Z,94.52
2022-09-09T07:33:00.363Z,94.22
2022-09-09T07:35:29.901Z,94.55
2022-09-09T07:37:59.307Z,94.60
2022-09-09T07:40:31.332Z,94.44
2022-09-09T07:43:00.274Z,94.59
2022-09-09T07:45:30.162Z,94.90
2022-09-09T07:47:59.039Z,94.75
2022-09-09T07:50:28.960Z,95.81
2022-09-09T07:52:57.978Z,94.34
2022-09-09T07:55:27.590Z,94.11
2022-09-09T07:57:58.674Z,94.14
2022-09-09T08:00:29.601Z,93.95
2022-09-09T08:03:02.050Z,93.98
2022-09-09T08:05:31.292Z,93.53
2022-09-09T08:08:00.218Z,93.70
2022-09-09T08:10:29.288Z,94.08
2022-09-09T08:13:17.388Z,94.06
2022-09-09T08:15:47.836Z,94.05
2022-09-09T08:18:16.864Z,94.41
2022-09-09T08:20:46.951Z,94.20
2022-09-09T08:23:17.051Z,91.83
2022-09-09T08:25:46.749Z,91.43
2022-09-09T08:28:17.760Z,91.76
2022-09-09T08:30:49.102Z,92.55
2022-09-09T08:33:19.104Z,90.65
2022-09-09T08:35:53.898Z,88.43
2022-09-09T08:38:22.780Z,86.18
2022-09-09T08:41:02.079Z,86.40
2022-09-09T08:43:34.433Z,86.87
2022-09-09T08:46:11.957Z,85.31
2022-09-09T08:48:54.043Z,84.11
2022-09-09T08:51:23.500Z,84.84
2022-09-09T08:53:59.578Z,83.99
2022-09-09T08:56:33.566Z,84.14
2022-09-09T08:59:07.331Z,83.87
2022-09-09T09:01:57.741Z,85.17
2022-09-09T09:04:52.491Z,84.68
2022-09-09T09:07:36.376Z,84.96
2022-09-09T09:10:40.635Z,85.78
2022-09-09T09:13:19.425Z,86.45
2022-09-09T09:16:00.526Z,87.43
2022-09-09T09:18:30.219Z,87.48
2022-09-09T09:21:11.538Z,87.37
2022-09-09T09:23:52.056Z,87.32
2022-09-09T09:26:27.413Z,87.10
2022-09-09T09:29:18.782Z,88.96
2022-09-09T09:31:55.727Z,88.57
2022-09-09T09:34:26.531Z,87.13
2022-09-09T09:37:02.769Z,84.23
2022-09-09T09:42:27.605Z,85.71
2022-09-09T09:44:59.818Z,85.32
2022-09-09T09:47:30.298Z,82.65
2022-09-09T09:50:22.042Z,79.68
2022-09-09T09:52:59.131Z,78.84
2022-09-09T09:55:33.388Z,78.17
2022-09-09T09:58:09.206Z,75.11
2022-09-09T10:00:52.145Z,71.65
2022-09-09T10:03:33.207Z,71.10
2022-09-09T10:06:03.579Z,68.16
2022-09-09T10:08:36.443Z,72.81
2022-09-09T10:11:28.818Z,69.73
2022-09-09T10:14:11.174Z,66.74
2022-09-09T10:16:59.487Z,65.03
2022-09-09T10:19:34.746Z,65.21
2022-09-09T10:22:27.464Z,63.24
2022-09-09T10:25:29.419Z,65.14
2022-09-09T10:28:35.241Z,66.19
2022-09-09T10:31:23.888Z,62.74
2022-09-09T10:34:03.588Z,62.46
2022-09-09T10:36:33.538Z,61.79
2022-09-09T10:39:07.309Z,59.53
2022-09-09T10:41:54.141Z,59.17
2022-09-09T10:44:42.951Z,60.47
2022-09-09T10:47:45.335Z,62.08
2022-09-09T10:51:01.104Z,59.26
2022-09-09T10:53:48.581Z,62.16
2022-09-09T10:56:22.371Z,66.45
2022-09-09T10:58:58.808Z,68.09
2022-09-09T11:01:34.505Z,69.63
2022-09-09T11:04:13.721Z,68.07
2022-09-09T11:06:50.768Z,68.39
2022-09-09T11:09:25.517Z,66.27
2022-09-09T11:11:58.874Z,66.52
2022-09-09T11:14:37.614Z,68.19
2022-09-09T11:17:15.035Z,68.19
2022-09-09T11:19:45.467Z,67.99
2022-09-09T11:22:30.506Z,69.22
2022-09-09T11:25:10.605Z,68.11
2022-09-09T11:28:06.225Z,69.26
2022-09-09T11:30:56.841Z,73.06
2022-09-09T11:33:52.043Z,69.81
2022-09-09T11:36:59.945Z,64.60
2022-09-09T11:40:11.970Z,63.72
2022-09-09T11:42:42.620Z,64.36
2022-09-09T11:45:21.766Z,65.71
2022-09-09T11:47:56.016Z,64.95
2022-09-09T11:50:36.083Z,66.20
2022-09-09T11:53:24.551Z,68.52
2022-09-09T11:56:14.677Z,69.31
2022-09-09T11:59:01.812Z,67.06
2022-09-09T12:01:44.000Z,68.10
2022-09-09T12:04:34.118Z,67.78
2022-09-09T12:07:23.982Z,67.71
2022-09-09T12:10:00.661Z,67.36
2022-09-09T12:12:38.216Z,67.15
2022-09-09T12:15:31.491Z,63.94
2022-09-09T12:18:03.918Z,66.07
2022-09-09T12:20:39.996Z,61.67
2022-09-09T12:23:43.573Z,63.44
2022-09-09T12:26:39.969Z,61.43
2022-09-09T12:29:27.166Z,63.23
2022-09-09T12:32:09.184Z,63.70
2022-09-09T12:34:45.175Z,60.47
2022-09-09T12:37:25.506Z,56.96
2022-09-09T12:39:59.570Z,55.92
2022-09-09T12:42:29.348Z,55.40
2022-09-09T12:45:00.836Z,55.32
2022-09-09T12:47:42.436Z,57.40
2022-09-09T12:50:22.579Z,60.44
2022-09-09T12:52:55.497Z,62.88
2022-09-09T12:55:32.340Z,60.92
2022-09-09T12:58:05.658Z,59.26
2022-09-09T13:00:39.856Z,61.58
2022-09-09T13:03:22.505Z,61.63
2022-09-09T13:05:52.401Z,62.39
2022-09-09T13:08:22.735Z,63.23
2022-09-09T13:11:02.928Z,62.60
2022-09-09T13:13:38.884Z,60.92
2022-09-09T13:16:20.555Z,57.92
2022-09-09T13:18:51.851Z,59.28
2022-09-09T13:21:21.505Z,57.93
2022-09-09T13:23:54.164Z,60.67
2022-09-09T13:26:26.701Z,61.63
2022-09-09T13:28:57.018Z,60.99
2022-09-09T13:31:30.989Z,61.86
2022-09-09T13:34:01.658Z,56.50
2022-09-09T13:36:34.149Z,58.52
2022-09-09T13:39:05.473Z,56.68
2022-09-09T13:41:37.387Z,56.05
2022-09-09T13:44:07.615Z,55.61
2022-09-09T13:46:38.991Z,57.11
2022-09-09T13:49:25.067Z,58.74
2022-09-09T13:52:07.142Z,59.90
2022-09-09T13:54:36.474Z,59.40
2022-09-09T13:57:05.840Z,59.90
2022-09-09T13:59:54.288Z,58.76
2022-09-09T14:02:26.249Z,59.69
2022-09-09T14:05:16.339Z,60.91
2022-09-09T14:07:50.086Z,60.33
2022-09-09T14:10:21.985Z,61.98
2022-09-09T14:12:52.277Z,63.57
2022-09-09T14:15:21.274Z,63.44
2022-09-09T14:17:50.482Z,64.87
2022-09-09T14:20:20.752Z,62.54
2022-09-09T14:22:50.028Z,63.36
2022-09-09T14:25:19.299Z,63.32
2022-09-09T14:27:48.331Z,62.12
2022-09-09T14:30:19.233Z,61.17
2022-09-09T14:32:47.874Z,61.02
2022-09-09T14:35:18.378Z,60.96
2022-09-09T14:37:49.622Z,60.95
2022-09-09T14:40:19.378Z,61.58
2022-09-09T14:42:49.569Z,62.41
2022-09-09T14:45:18.426Z,61.33
2022-09-09T14:47:47.882Z,60.92
2022-09-09T14:50:16.639Z,60.05
2022-09-09T14:52:47.755Z,61.90
2022-09-09T14:55:17.245Z,63.33
2022-09-09T14:57:48.896Z,63.44
2022-09-09T15:00:17.990Z,63.99
2022-09-09T15:02:46.853Z,63.34
2022-09-09T15:05:16.310Z,64.49
2022-09-09T15:07:45.302Z,64.60
2022-09-09T15:10:15.458Z,64.75
2022-09-09T15:12:44.104Z,65.25
2022-09-09T15:15:13.862Z,66.33
2022-09-09T15:17:44.004Z,66.33
2022-09-09T15:20:13.304Z,66.29
2022-09-09T15:22:43.906Z,65.77
2022-09-09T15:25:13.597Z,65.31
2022-09-09T15:27:47.605Z,66.04
2022-09-09T15:30:16.923Z,67.71
2022-09-09T15:32:45.588Z,67.38
2022-09-09T15:35:14.768Z,66.80
2022-09-09T15:37:46.204Z,67.85
2022-09-09T15:40:15.342Z,68.91
2022-09-09T15:42:44.032Z,68.44
2022-09-09T15:45:16.558Z,66.93
2022-09-09T15:47:46.401Z,66.94
2022-09-09T15:50:16.661Z,66.95
2022-09-09T15:52:47.284Z,67.31
2022-09-09T15:55:16.398Z,67.20
2022-09-09T15:58:20.330Z,66.24
2022-09-09T16:00:50.678Z,66.70
2022-09-09T16:03:19.570Z,67.25
2022-09-09T16:05:53.740Z,67.31
2022-09-09T16:08:22.380Z,67.98
2022-09-09T16:10:51.499Z,68.03
2022-09-09T16:13:20.140Z,67.42
2022-09-09T16:15:56.775Z,68.72
2022-09-09T16:18:25.665Z,68.93
2022-09-09T16:20:57.386Z,69.07
2022-09-09T16:23:27.542Z,68.38
2022-09-09T16:25:57.233Z,69.49
2022-09-09T16:28:26.344Z,69.99
2022-09-09T16:30:56.748Z,69.62
2022-09-09T16:33:28.045Z,68.86
2022-09-09T16:35:56.952Z,69.03
2022-09-09T16:38:26.014Z,68.28
2022-09-09T16:41:01.289Z,68.32
2022-09-09T16:43:30.558Z,68.72
2022-09-09T16:46:02.912Z,68.52
2022-09-09T16:48:35.252Z,69.56
2022-09-09T16:51:07.540Z,70.21
2022-09-09T16:53:38.583Z,70.75
2022-09-09T16:56:09.634Z,69.86
2022-09-09T16:58:40.912Z,70.58
2022-09-09T17:01:15.433Z,70.93
2022-09-09T17:03:44.648Z,71.65
2022-09-09T17:06:14.687Z,71.83
2022-09-09T17:08:45.310Z,71.24
2022-09-09T17:11:16.290Z,72.01
2022-09-09T17:13:46.769Z,70.60
2022-09-09T17:16:22.967Z,71.16
2022-09-09T17:18:52.955Z,68.78
2022-09-09T17:21:24.537Z,69.11
2022-09-09T17:23:59.287Z,69.27
2022-09-09T17:26:31.034Z,69.17
2022-09-09T17:29:01.466Z,69.22
2022-09-09T17:31:33.744Z,69.92
2022-09-09T17:34:02.616Z,71.06
2022-09-09T17:36:37.700Z,71.37
2022-09-09T17:39:08.095Z,71.38
2022-09-09T17:41:39.558Z,71.53
2022-09-09T17:44:11.285Z,71.01
2022-09-09T17:46:52.051Z,71.15
2022-09-09T17:49:20.936Z,70.98
2022-09-09T17:51:49.851Z,70.59
2022-09-09T17:54:21.941Z,69.82
2022-09-09T17:56:59.541Z,69.88
2022-09-09T17:59:31.625Z,69.26
2022-09-09T18:02:02.431Z,69.66
2022-09-09T18:04:32.224Z,70.10
2022-09-09T18:07:01.315Z,70.70
2022-09-09T18:09:32.813Z,70.45
2022-09-09T18:12:01.846Z,70.35
2022-09-09T18:14:34.028Z,70.38
2022-09-09T18:17:06.665Z,70.83
2022-09-09T18:19:35.827Z,71.00
2022-09-09T18:22:08.100Z,70.57
2022-09-09T18:24:37.369Z,71.67
2022-09-09T18:27:07.004Z,71.13
2022-09-09T18:29:36.053Z,72.08
2022-09-09T18:32:07.263Z,72.21
2022-09-09T18:34:36.566Z,72.55
2022-09-09T18:37:05.264Z,72.89
2022-09-09T18:39:34.587Z,73.08
2022-09-09T18:42:03.545Z,73.18
2022-09-09T18:44:35.059Z,72.83
2022-09-09T18:47:07.871Z,73.02
2022-09-09T18:49:36.929Z,73.10
2022-09-09T18:52:47.036Z,73.31
2022-09-09T18:55:16.098Z,73.18
2022-09-09T18:57:45.163Z,73.10
2022-09-09T19:00:16.017Z,72.90
2022-09-09T19:02:53.039Z,73.26
2022-09-09T19:05:22.689Z,73.59
2022-09-09T19:07:51.931Z,73.32
2022-09-09T19:10:23.053Z,72.75
2022-09-09T19:12:51.932Z,73.16
2022-09-09T19:15:21.032Z,72.84
2022-09-09T19:17:51.793Z,72.93
2022-09-09T19:20:23.715Z,72.65
2022-09-09T19:22:53.136Z,72.96
2022-09-09T19:25:23.781Z,73.33
2022-09-09T19:27:52.597Z,73.97
2022-09-09T19:30:22.084Z,74.00
2022-09-09T19:32:54.979Z,73.33
2022-09-09T19:35:24.574Z,74.25
2022-09-09T19:37:54.148Z,74.47
2022-09-09T19:40:23.392Z,74.33
2022-09-09T19:42:54.071Z,74.06
2022-09-09T19:45:22.878Z,74.57
2022-09-09T19:47:54.113Z,75.11
2022-09-09T19:50:23.410Z,74.52
2022-09-09T19:52:52.812Z,75.08
2022-09-09T19:55:23.849Z,75.50
2022-09-09T19:57:55.313Z,74.75
2022-09-09T20:00:24.236Z,75.16
2022-09-09T20:03:17.474Z,74.96
2022-09-09T20:05:45.660Z,75.02
2022-09-09T20:08:16.107Z,75.42
2022-09-09T20:10:53.556Z,75.17
2022-09-09T20:13:23.069Z,74.32
2022-09-09T20:16:00.886Z,73.96
2022-09-09T20:18:33.292Z,74.75
2022-09-09T20:21:06.859Z,75.07
2022-09-09T20:23:37.404Z,75.23
2022-09-09T20:26:09.297Z,75.21
2022-09-09T20:28:40.213Z,75.39
2022-09-09T20:31:12.385Z,75.71
2022-09-09T20:33:44.359Z,75.43
2022-09-09T20:36:14.891Z,75.54
2022-09-09T20:38:45.859Z,75.56
2022-09-09T20:41:18.611Z,75.13
2022-09-09T20:43:49.522Z,75.90
2022-09-09T20:46:22.482Z,75.98
2022-09-09T20:48:56.754Z,75.79
2022-09-09T20:51:32.064Z,76.06
2022-09-09T20:54:03.950Z,76.36
2022-09-09T20:56:35.049Z,76.33
2022-09-09T20:59:03.714Z,76.51
2022-09-09T21:01:32.795Z,76.09
2022-09-09T21:04:03.130Z,76.22
2022-09-09T21:06:31.926Z,76.14
2022-09-09T21:09:00.620Z,76.14
2022-09-09T21:11:29.373Z,76.82
2022-09-09T21:14:03.469Z,76.85
2022-09-09T21:16:32.956Z,77.08
2022-09-09T21:19:03.155Z,77.04
2022-09-09T21:21:32.150Z,76.88
2022-09-09T21:24:01.059Z,76.51
2022-09-09T21:26:29.902Z,77.01
2022-09-09T21:28:58.549Z,76.72
2022-09-09T21:31:28.524Z,76.99
2022-09-09T21:33:57.848Z,76.87
2022-09-09T21:36:28.665Z,76.91
2022-09-09T21:38:59.217Z,77.58
2022-09-09T21:41:28.200Z,78.03
2022-09-09T21:43:57.501Z,77.79
2022-09-09T21:46:27.645Z,77.52
2022-09-09T21:48:57.325Z,77.88
2022-09-09T21:51:27.868Z,78.39
2022-09-09T21:53:57.897Z,78.61
2022-09-09T21:56:26.899Z,78.19
2022-09-09T21:59:03.809Z,77.75
2022-09-09T22:01:34.298Z,78.27
2022-09-09T22:04:03.521Z,78.18
2022-09-09T22:06:33.885Z,78.35
2022-09-09T22:09:03.829Z,78.21
2022-09-09T22:11:32.558Z,78.54
2022-09-09T22:14:03.050Z,78.49
2022-09-09T22:16:31.872Z,78.50
2022-09-09T22:19:02.463Z,78.44
2022-09-09T22:21:34.271Z,78.20
2022-09-09T22:24:06.345Z,77.50
2022-09-09T22:26:38.481Z,77.63
2022-09-09T22:29:07.941Z,77.62
2022-09-09T22:31:37.822Z,77.96
2022-09-09T22:34:07.986Z,77.90
2022-09-09T22:36:38.160Z,78.14
2022-09-09T22:39:07.503Z,77.92
2022-09-09T22:41:36.091Z,77.83
2022-09-09T22:44:05.015Z,77.75
2022-09-09T22:46:33.598Z,77.52
2022-09-09T22:49:05.253Z,77.91
2022-09-09T22:51:34.829Z,78.06
2022-09-09T22:54:08.011Z,78.16
2022-09-09T22:56:36.695Z,78.07
2022-09-09T22:59:05.525Z,78.21
2022-09-09T23:01:35.262Z,78.60
2022-09-09T23:04:04.580Z,78.64
2022-09-09T23:06:33.366Z,78.45
2022-09-09T23:09:04.850Z,78.34
2022-09-09T23:11:37.111Z,78.18
2022-09-09T23:14:11.807Z,78.55
2022-09-09T23:16:44.967Z,78.13
2022-09-09T23:19:17.208Z,78.26
2022-09-09T23:21:48.152Z,78.39
2022-09-09T23:24:19.109Z,77.87
2022-09-09T23:26:47.846Z,77.95
2022-09-09T23:29:16.582Z,77.90
2022-09-09T23:31:47.235Z,78.09
2022-09-09T23:34:15.988Z,78.08
2022-09-09T23:36:44.690Z,78.54
2022-09-09T23:39:14.322Z,78.68
2022-09-09T23:41:44.953Z,78.95
2022-09-09T23:44:13.815Z,79.00
2022-09-09T23:46:42.662Z,79.21
2022-09-09T23:49:11.876Z,78.67
2022-09-09T23:51:41.600Z,78.42
2022-09-09T23:54:11.107Z,78.44
2022-09-09T23:56:44.631Z,78.06
2022-09-09T23:59:13.306Z,78.44
